createdAt,value
2018-06-29T00:00:24.543Z,0.00
2018-06-29T00:01:24.456Z,0.00
2018-06-29T00:02:24.375Z,0.00
2018-06-29T00:03:24.304Z,0.00
2018-06-29T00:04:24.232Z,0.00
2018-06-29T00:05:24.155Z,0.00
2018-06-29T00:06:24.066Z,0.00
2018-06-29T00:07:23.991Z,0.00
2018-06-29T00:08:24.072Z,0.00
2018-06-29T00:09:23.838Z,0.00
2018-06-29T00:10:23.763Z,0.00
2018-06-29T00:11:23.681Z,0.00
2018-06-29T00:12:23.601Z,0.00
2018-06-29T00:13:23.540Z,0.00
2018-06-29T00:14:23.450Z,0.00
2018-06-29T00:15:23.363Z,0.00
2018-06-29T00:16:23.294Z,0.00
2018-06-29T00:17:23.217Z,0.00
2018-06-29T00:18:23.142Z,0.00
2018-06-29T00:19:23.054Z,0.00
2018-06-29T00:20:22.975Z,0.00
2018-06-29T00:21:22.900Z,0.00
2018-06-29T00:22:22.841Z,0.00
2018-06-29T00:23:22.741Z,0.00
2018-06-29T00:24:22.673Z,0.00
2018-06-29T00:25:22.595Z,0.00
2018-06-29T00:26:22.517Z,0.00
2018-06-29T00:27:22.440Z,0.00
2018-06-29T00:28:22.367Z,0.00
2018-06-29T00:29:22.282Z,0.00
2018-06-29T00:30:22.208Z,0.00
2018-06-29T00:31:22.135Z,0.00
2018-06-29T00:32:22.042Z,0.00
2018-06-29T00:33:21.966Z,0.00
2018-06-29T00:34:21.896Z,0.00
2018-06-29T00:35:21.810Z,0.00
2018-06-29T00:36:21.729Z,0.00
2018-06-29T00:37:21.655Z,0.00
2018-06-29T00:38:21.577Z,0.00
2018-06-29T00:39:21.502Z,0.00
2018-06-29T00:40:21.419Z,0.00
2018-06-29T00:41:21.346Z,0.00
2018-06-29T00:42:21.268Z,0.00
2018-06-29T00:43:21.192Z,0.00
2018-06-29T00:44:21.109Z,0.00
2018-06-29T00:45:21.034Z,0.00
2018-06-29T00:46:20.957Z,0.00
2018-06-29T00:47:20.883Z,0.00
2018-06-29T00:48:20.792Z,0.00
2018-06-29T00:49:20.716Z,0.00
2018-06-29T00:50:20.646Z,0.00
2018-06-29T00:51:20.559Z,0.00
2018-06-29T00:52:20.479Z,0.00
2018-06-29T00:53:20.404Z,0.00
2018-06-29T00:54:20.330Z,0.00
2018-06-29T00:55:20.310Z,0.00
2018-06-29T00:56:20.173Z,0.00
2018-06-29T00:57:20.102Z,0.00
2018-06-29T00:58:20.025Z,0.00
2018-06-29T00:59:19.942Z,0.00
2018-06-29T01:00:19.859Z,0.00
2018-06-29T01:01:19.784Z,0.00
2018-06-29T01:02:19.711Z,0.00
2018-06-29T01:03:19.623Z,0.00
2018-06-29T01:04:19.546Z,0.00
2018-06-29T01:05:19.470Z,0.00
2018-06-29T01:06:19.400Z,0.00
2018-06-29T01:07:19.312Z,0.00
2018-06-29T01:08:19.283Z,0.00
2018-06-29T01:09:19.157Z,0.00
2018-06-29T01:10:19.080Z,0.00
2018-06-29T01:11:18.994Z,0.00
2018-06-29T01:12:18.934Z,0.00
2018-06-29T01:13:18.848Z,0.00
2018-06-29T01:14:18.759Z,0.00
2018-06-29T01:15:18.696Z,0.00
2018-06-29T01:16:18.612Z,0.00
2018-06-29T01:17:18.537Z,0.00
2018-06-29T01:18:18.449Z,0.00
2018-06-29T01:19:18.374Z,0.00
2018-06-29T01:20:18.294Z,0.00
2018-06-29T01:21:18.222Z,0.00
2018-06-29T01:22:18.139Z,0.00
2018-06-29T01:23:18.064Z,0.00
2018-06-29T01:24:17.997Z,0.00
2018-06-29T01:25:17.897Z,0.00
2018-06-29T01:26:17.824Z,0.00
2018-06-29T01:27:17.746Z,0.00
2018-06-29T01:28:17.676Z,0.00
2018-06-29T01:29:17.600Z,0.00
2018-06-29T01:30:17.510Z,0.00
2018-06-29T01:31:17.437Z,0.00
2018-06-29T01:32:17.363Z,0.00
2018-06-29T01:33:17.277Z,0.00
2018-06-29T01:34:17.200Z,0.00
2018-06-29T01:35:17.129Z,0.00
2018-06-29T01:36:17.034Z,0.00
2018-06-29T01:37:16.959Z,0.00
2018-06-29T01:38:16.902Z,0.00
2018-06-29T01:39:16.813Z,0.00
2018-06-29T01:40:16.728Z,0.00
2018-06-29T01:41:16.646Z,0.00
2018-06-29T01:42:16.574Z,0.00
2018-06-29T01:43:16.500Z,0.00
2018-06-29T01:44:16.415Z,0.00
2018-06-29T01:45:16.340Z,0.00
2018-06-29T01:46:16.260Z,0.00
2018-06-29T01:47:16.174Z,0.00
2018-06-29T01:48:16.102Z,0.00
2018-06-29T01:49:16.027Z,0.00
2018-06-29T01:50:15.954Z,0.00
2018-06-29T01:51:15.866Z,0.00
2018-06-29T01:52:15.852Z,0.00
2018-06-29T01:53:15.714Z,0.00
2018-06-29T01:54:15.631Z,0.00
2018-06-29T01:55:15.555Z,0.00
2018-06-29T01:56:15.475Z,0.00
2018-06-29T01:57:15.401Z,0.00
2018-06-29T01:58:15.324Z,0.00
2018-06-29T01:59:15.275Z,0.00
2018-06-29T02:00:15.166Z,0.00
2018-06-29T02:01:15.079Z,0.00
2018-06-29T02:02:15.001Z,0.00
2018-06-29T02:03:14.926Z,0.00
2018-06-29T02:04:14.856Z,0.00
2018-06-29T02:05:14.768Z,0.00
2018-06-29T02:06:14.690Z,0.00
2018-06-29T02:07:14.618Z,0.00
2018-06-29T02:08:14.525Z,0.00
2018-06-29T02:09:14.451Z,0.00
2018-06-29T02:10:14.379Z,0.00
2018-06-29T02:11:14.307Z,0.00
2018-06-29T02:12:14.226Z,0.00
2018-06-29T02:13:14.137Z,0.00
2018-06-29T02:14:14.064Z,0.00
2018-06-29T02:15:13.978Z,0.00
2018-06-29T02:16:13.907Z,0.00
2018-06-29T02:17:13.832Z,0.00
2018-06-29T02:18:13.752Z,0.00
2018-06-29T02:19:13.667Z,0.00
2018-06-29T02:20:13.592Z,0.00
2018-06-29T02:21:13.517Z,0.00
2018-06-29T02:22:13.433Z,0.00
2018-06-29T02:23:13.358Z,0.00
2018-06-29T02:24:13.281Z,0.00
2018-06-29T02:25:13.192Z,0.00
2018-06-29T02:26:13.115Z,0.00
2018-06-29T02:27:13.041Z,0.00
2018-06-29T02:28:12.984Z,0.00
2018-06-29T02:29:12.885Z,0.00
2018-06-29T02:30:12.808Z,0.00
2018-06-29T02:31:12.732Z,0.00
2018-06-29T02:32:12.639Z,0.00
2018-06-29T02:33:12.565Z,0.00
2018-06-29T02:34:12.496Z,0.00
2018-06-29T02:35:12.431Z,0.00
2018-06-29T02:36:12.331Z,0.00
2018-06-29T02:37:12.256Z,0.00
2018-06-29T02:38:12.178Z,0.00
2018-06-29T02:39:12.111Z,0.00
2018-06-29T02:40:12.029Z,0.00
2018-06-29T02:41:11.944Z,0.00
2018-06-29T02:42:11.865Z,0.00
2018-06-29T02:43:11.778Z,0.00
2018-06-29T02:44:11.708Z,0.00
2018-06-29T02:45:11.620Z,5.63
2018-06-29T02:46:11.547Z,5.63
2018-06-29T02:47:11.474Z,5.63
2018-06-29T02:48:11.381Z,5.63
2018-06-29T02:49:11.306Z,5.63
2018-06-29T02:50:11.234Z,5.63
2018-06-29T02:51:11.163Z,5.63
2018-06-29T02:52:11.066Z,5.63
2018-06-29T02:53:10.992Z,5.63
2018-06-29T02:54:10.922Z,5.63
2018-06-29T02:55:10.832Z,11.25
2018-06-29T02:56:10.761Z,11.25
2018-06-29T02:57:10.689Z,11.25
2018-06-29T02:58:10.594Z,11.25
2018-06-29T02:59:10.519Z,11.25
2018-06-29T03:00:10.448Z,11.25
2018-06-29T03:01:10.373Z,11.25
2018-06-29T03:02:10.284Z,11.25
2018-06-29T03:03:10.210Z,16.88
2018-06-29T03:04:10.117Z,16.88
2018-06-29T03:05:10.042Z,16.88
2018-06-29T03:06:09.974Z,16.88
2018-06-29T03:07:09.898Z,16.88
2018-06-29T03:08:09.810Z,16.88
2018-06-29T03:09:09.736Z,16.88
2018-06-29T03:10:09.657Z,22.50
2018-06-29T03:11:09.569Z,22.50
2018-06-29T03:12:09.498Z,22.50
2018-06-29T03:13:09.422Z,22.50
2018-06-29T03:14:09.335Z,22.50
2018-06-29T03:15:09.259Z,22.50
2018-06-29T03:16:09.185Z,22.50
2018-06-29T03:17:09.098Z,28.13
2018-06-29T03:18:09.027Z,28.13
2018-06-29T03:19:08.966Z,28.13
2018-06-29T03:20:08.859Z,28.13
2018-06-29T03:21:08.786Z,28.13
2018-06-29T03:22:08.713Z,28.13
2018-06-29T03:23:08.625Z,33.75
2018-06-29T03:24:08.546Z,33.75
2018-06-29T03:25:08.515Z,33.75
2018-06-29T03:26:08.395Z,33.75
2018-06-29T03:27:08.313Z,33.75
2018-06-29T03:28:08.239Z,33.75
2018-06-29T03:29:08.152Z,39.38
2018-06-29T03:30:08.070Z,39.38
2018-06-29T03:31:07.995Z,39.38
2018-06-29T03:32:07.913Z,39.38
2018-06-29T03:33:07.884Z,39.38
2018-06-29T03:34:07.765Z,39.38
2018-06-29T03:35:07.690Z,39.38
2018-06-29T03:36:07.598Z,45.00
2018-06-29T03:37:07.524Z,45.00
2018-06-29T03:38:07.451Z,45.00
2018-06-29T03:39:07.364Z,45.00
2018-06-29T03:40:07.285Z,45.00
2018-06-29T03:41:07.209Z,45.00
2018-06-29T03:42:07.124Z,45.00
2018-06-29T03:43:07.052Z,50.63
2018-06-29T03:44:06.978Z,50.63
2018-06-29T03:45:06.896Z,50.63
2018-06-29T03:46:06.817Z,50.63
2018-06-29T03:47:06.737Z,50.63
2018-06-29T03:48:06.653Z,50.63
2018-06-29T03:49:06.579Z,50.63
2018-06-29T03:50:06.503Z,56.25
2018-06-29T03:51:06.416Z,56.25
2018-06-29T03:52:06.348Z,56.25
2018-06-29T03:53:06.265Z,56.25
2018-06-29T03:54:06.181Z,56.25
2018-06-29T03:55:06.104Z,56.25
2018-06-29T03:56:06.026Z,56.25
2018-06-29T03:57:05.951Z,61.88
2018-06-29T03:58:05.861Z,61.88
2018-06-29T03:59:05.786Z,61.88
2018-06-29T04:00:05.716Z,61.88
2018-06-29T04:01:05.652Z,61.88
2018-06-29T04:02:05.548Z,61.88
2018-06-29T04:03:05.487Z,61.88
2018-06-29T04:04:05.392Z,61.88
2018-06-29T04:05:05.316Z,67.50
2018-06-29T04:06:05.244Z,67.50
2018-06-29T04:07:05.157Z,67.50
2018-06-29T04:08:05.089Z,67.50
2018-06-29T04:09:05.002Z,67.50
2018-06-29T04:10:04.929Z,67.50
2018-06-29T04:11:04.855Z,67.50
2018-06-29T04:12:04.763Z,67.50
2018-06-29T04:13:04.688Z,73.13
2018-06-29T04:14:04.604Z,73.13
2018-06-29T04:15:04.528Z,73.13
2018-06-29T04:16:04.461Z,73.13
2018-06-29T04:17:04.370Z,73.13
2018-06-29T04:18:04.291Z,73.13
2018-06-29T04:19:04.217Z,73.13
2018-06-29T04:20:04.148Z,78.75
2018-06-29T04:21:04.057Z,78.75
2018-06-29T04:22:03.982Z,78.75
2018-06-29T04:23:03.905Z,78.75
2018-06-29T04:24:03.814Z,78.75
2018-06-29T04:25:03.739Z,78.75
2018-06-29T04:26:03.672Z,84.38
2018-06-29T04:27:03.596Z,84.38
2018-06-29T04:28:03.507Z,84.38
2018-06-29T04:29:03.431Z,84.38
2018-06-29T04:30:03.352Z,84.38
2018-06-29T04:31:03.267Z,90.00
2018-06-29T04:32:03.194Z,90.00
2018-06-29T04:33:03.119Z,90.00
2018-06-29T04:34:03.031Z,95.63
2018-06-29T04:35:02.955Z,101.25
2018-06-29T04:36:02.898Z,106.88
2018-06-29T04:37:02.810Z,101.25
2018-06-29T04:38:02.720Z,106.88
2018-06-29T04:39:02.645Z,123.75
2018-06-29T04:40:02.566Z,129.38
2018-06-29T04:41:02.491Z,123.75
2018-06-29T04:42:02.409Z,118.13
2018-06-29T04:43:02.334Z,135.00
2018-06-29T04:44:02.255Z,140.63
2018-06-29T04:45:02.185Z,140.63
2018-06-29T04:46:02.092Z,140.63
2018-06-29T04:47:02.019Z,146.25
2018-06-29T04:48:01.946Z,146.25
2018-06-29T04:49:01.859Z,146.25
2018-06-29T04:50:01.792Z,151.88
2018-06-29T04:51:01.707Z,151.88
2018-06-29T04:52:01.633Z,157.50
2018-06-29T04:53:01.558Z,157.50
2018-06-29T04:54:01.476Z,163.13
2018-06-29T04:55:01.400Z,163.13
2018-06-29T04:56:01.320Z,163.13
2018-06-29T04:57:01.245Z,163.13
2018-06-29T04:58:01.173Z,151.88
2018-06-29T04:59:01.096Z,135.00
2018-06-29T05:00:01.005Z,129.38
2018-06-29T05:01:00.998Z,129.38
2018-06-29T05:02:00.857Z,123.75
2018-06-29T05:03:00.796Z,123.75
2018-06-29T05:04:00.711Z,123.75
2018-06-29T05:05:00.637Z,129.38
2018-06-29T05:06:00.558Z,123.75
2018-06-29T05:07:00.471Z,123.75
2018-06-29T05:08:00.403Z,123.75
2018-06-29T05:09:00.325Z,123.75
2018-06-29T05:10:00.249Z,123.75
2018-06-29T05:11:00.173Z,123.75
2018-06-29T05:12:00.094Z,123.75
2018-06-29T05:13:00.021Z,129.38
2018-06-29T05:13:59.951Z,129.38
2018-06-29T05:14:59.864Z,129.38
2018-06-29T05:15:59.785Z,129.38
2018-06-29T05:16:59.709Z,129.38
2018-06-29T05:17:59.632Z,129.38
2018-06-29T05:18:59.557Z,129.38
2018-06-29T05:19:59.486Z,129.38
2018-06-29T05:20:59.411Z,129.38
2018-06-29T05:21:59.332Z,129.38
2018-06-29T05:22:59.260Z,129.38
2018-06-29T05:23:59.178Z,129.38
2018-06-29T05:24:59.100Z,129.38
2018-06-29T05:25:59.026Z,129.38
2018-06-29T05:26:58.952Z,135.00
2018-06-29T05:27:58.877Z,135.00
2018-06-29T05:28:58.799Z,135.00
2018-06-29T05:29:58.714Z,135.00
2018-06-29T05:30:58.653Z,135.00
2018-06-29T05:31:58.558Z,135.00
2018-06-29T05:32:58.484Z,135.00
2018-06-29T05:33:58.413Z,135.00
2018-06-29T05:34:58.347Z,135.00
2018-06-29T05:35:58.373Z,135.00
2018-06-29T05:36:58.179Z,135.00
2018-06-29T05:37:58.098Z,135.00
2018-06-29T05:38:58.272Z,135.00
2018-06-29T05:39:57.951Z,135.00
2018-06-29T05:40:57.877Z,135.00
2018-06-29T05:41:57.809Z,140.63
2018-06-29T05:42:57.733Z,140.63
2018-06-29T05:43:57.639Z,140.63
2018-06-29T05:44:57.563Z,140.63
2018-06-29T05:45:57.490Z,140.63
2018-06-29T05:46:57.419Z,140.63
2018-06-29T05:47:57.335Z,140.63
2018-06-29T05:48:57.261Z,140.63
2018-06-29T05:49:57.191Z,140.63
2018-06-29T05:50:57.105Z,140.63
2018-06-29T05:51:57.030Z,140.63
2018-06-29T05:52:56.975Z,146.25
2018-06-29T05:53:56.877Z,146.25
2018-06-29T05:54:56.802Z,146.25
2018-06-29T05:55:56.731Z,146.25
2018-06-29T05:56:56.647Z,146.25
2018-06-29T05:57:56.579Z,146.25
2018-06-29T05:58:56.754Z,146.25
2018-06-29T05:59:56.412Z,146.25
2018-06-29T06:00:56.350Z,146.25
2018-06-29T06:01:56.342Z,146.25
2018-06-29T06:02:56.195Z,146.25
2018-06-29T06:03:56.106Z,146.25
2018-06-29T06:04:56.032Z,146.25
2018-06-29T06:05:55.954Z,146.25
2018-06-29T06:06:55.876Z,146.25
2018-06-29T06:07:55.810Z,151.88
2018-06-29T06:08:55.730Z,146.25
2018-06-29T06:09:55.653Z,146.25
2018-06-29T06:10:55.577Z,146.25
2018-06-29T06:11:55.493Z,146.25
2018-06-29T06:12:55.417Z,146.25
2018-06-29T06:13:55.345Z,151.88
2018-06-29T06:14:55.284Z,146.25
2018-06-29T06:15:55.204Z,146.25
2018-06-29T06:16:55.116Z,146.25
2018-06-29T06:17:55.044Z,146.25
2018-06-29T06:18:54.982Z,151.88
2018-06-29T06:19:54.877Z,151.88
2018-06-29T06:20:54.810Z,146.25
2018-06-29T06:21:54.776Z,146.25
2018-06-29T06:22:54.655Z,146.25
2018-06-29T06:23:54.583Z,146.25
2018-06-29T06:24:54.509Z,146.25
2018-06-29T06:25:54.431Z,146.25
2018-06-29T06:26:54.355Z,151.88
2018-06-29T06:27:54.288Z,151.88
2018-06-29T06:28:54.198Z,151.88
2018-06-29T06:29:54.120Z,151.88
2018-06-29T06:30:54.060Z,151.88
2018-06-29T06:31:53.966Z,157.50
2018-06-29T06:32:53.892Z,157.50
2018-06-29T06:33:53.822Z,157.50
2018-06-29T06:34:53.748Z,163.13
2018-06-29T06:35:53.669Z,163.13
2018-06-29T06:36:53.594Z,163.13
2018-06-29T06:37:53.518Z,163.13
2018-06-29T06:38:53.442Z,163.13
2018-06-29T06:39:53.370Z,168.75
2018-06-29T06:40:53.285Z,168.75
2018-06-29T06:41:53.209Z,168.75
2018-06-29T06:42:53.135Z,174.38
2018-06-29T06:43:53.059Z,174.38
2018-06-29T06:44:52.983Z,174.38
2018-06-29T06:45:52.911Z,174.38
2018-06-29T06:46:52.865Z,180.00
2018-06-29T06:47:52.767Z,180.00
2018-06-29T06:48:52.687Z,185.63
2018-06-29T06:49:52.608Z,185.63
2018-06-29T06:50:52.534Z,191.25
2018-06-29T06:51:52.461Z,191.25
2018-06-29T06:52:52.386Z,196.88
2018-06-29T06:53:52.318Z,196.88
2018-06-29T06:54:52.238Z,202.50
2018-06-29T06:55:52.163Z,202.50
2018-06-29T06:56:52.085Z,202.50
2018-06-29T06:57:52.017Z,208.13
2018-06-29T06:58:52.188Z,208.13
2018-06-29T06:59:51.853Z,213.75
2018-06-29T07:00:51.787Z,213.75
2018-06-29T07:01:51.696Z,219.38
2018-06-29T07:02:51.621Z,219.38
2018-06-29T07:03:51.550Z,225.00
2018-06-29T07:04:51.487Z,225.00
2018-06-29T07:05:51.398Z,225.00
2018-06-29T07:06:51.324Z,230.63
2018-06-29T07:07:51.252Z,230.63
2018-06-29T07:08:51.190Z,236.25
2018-06-29T07:09:51.100Z,241.88
2018-06-29T07:10:51.025Z,236.25
2018-06-29T07:11:50.945Z,236.25
2018-06-29T07:12:51.028Z,236.25
2018-06-29T07:13:50.801Z,236.25
2018-06-29T07:14:50.727Z,236.25
2018-06-29T07:15:50.647Z,236.25
2018-06-29T07:16:50.584Z,241.88
2018-06-29T07:17:50.504Z,241.88
2018-06-29T07:18:50.437Z,241.88
2018-06-29T07:19:50.365Z,236.25
2018-06-29T07:20:50.290Z,241.88
2018-06-29T07:21:50.217Z,241.88
2018-06-29T07:22:50.135Z,241.88
2018-06-29T07:23:50.065Z,241.88
2018-06-29T07:24:49.989Z,247.50
2018-06-29T07:25:49.917Z,247.50
2018-06-29T07:26:49.841Z,247.50
2018-06-29T07:27:49.763Z,247.50
2018-06-29T07:28:49.688Z,253.13
2018-06-29T07:29:49.617Z,253.13
2018-06-29T07:30:49.545Z,253.13
2018-06-29T07:31:49.462Z,253.13
2018-06-29T07:32:49.388Z,253.13
2018-06-29T07:33:49.310Z,258.75
2018-06-29T07:34:49.236Z,253.13
2018-06-29T07:35:49.166Z,258.75
2018-06-29T07:36:49.102Z,258.75
2018-06-29T07:37:49.025Z,258.75
2018-06-29T07:38:49.262Z,258.75
2018-06-29T07:39:48.879Z,264.38
2018-06-29T07:40:48.804Z,264.38
2018-06-29T07:41:48.727Z,388.13
2018-06-29T07:42:48.652Z,275.63
2018-06-29T07:43:48.824Z,315.00
2018-06-29T07:44:48.499Z,315.00
2018-06-29T07:45:48.444Z,382.50
2018-06-29T07:46:48.369Z,416.25
2018-06-29T07:47:48.290Z,421.88
2018-06-29T07:48:48.215Z,421.88
2018-06-29T07:49:48.137Z,433.13
2018-06-29T07:50:48.104Z,438.75
2018-06-29T07:51:48.005Z,444.38
2018-06-29T07:52:47.978Z,450.00
2018-06-29T07:53:47.865Z,478.13
2018-06-29T07:54:47.793Z,534.38
2018-06-29T07:55:47.719Z,601.88
2018-06-29T07:56:47.657Z,652.50
2018-06-29T07:57:47.579Z,675.00
2018-06-29T07:58:47.820Z,691.88
2018-06-29T07:59:47.439Z,725.63
2018-06-29T08:00:47.376Z,765.00
2018-06-29T08:01:47.305Z,815.63
2018-06-29T08:02:47.295Z,905.63
2018-06-29T08:03:47.168Z,1012.50
2018-06-29T08:04:47.101Z,1119.38
2018-06-29T08:05:47.041Z,1231.88
2018-06-29T08:06:46.967Z,1366.88
2018-06-29T08:07:46.907Z,1614.38
2018-06-29T08:08:46.834Z,1940.63
2018-06-29T08:09:46.767Z,2536.88
2018-06-29T08:10:46.702Z,2941.88
2018-06-29T08:11:46.644Z,3150.00
2018-06-29T08:12:46.569Z,3043.13
2018-06-29T08:13:46.508Z,2716.88
2018-06-29T08:14:46.446Z,2508.75
2018-06-29T08:15:46.392Z,2553.75
2018-06-29T08:16:46.333Z,2621.25
2018-06-29T08:17:46.247Z,3009.38
2018-06-29T08:18:46.197Z,3313.13
2018-06-29T08:19:46.122Z,2812.50
2018-06-29T08:20:46.043Z,2340.00
2018-06-29T08:21:45.979Z,1760.63
2018-06-29T08:22:45.917Z,1181.25
2018-06-29T08:23:45.856Z,821.25
2018-06-29T08:24:45.799Z,669.38
2018-06-29T08:25:45.730Z,590.63
2018-06-29T08:26:45.657Z,523.13
2018-06-29T08:27:45.600Z,517.50
2018-06-29T08:28:45.537Z,500.63
2018-06-29T08:29:45.471Z,466.88
2018-06-29T08:30:45.408Z,444.38
2018-06-29T08:31:45.343Z,483.75
2018-06-29T08:32:45.279Z,506.25
2018-06-29T08:33:45.208Z,511.88
2018-06-29T08:34:45.149Z,500.63
2018-06-29T08:35:45.079Z,517.50
2018-06-29T08:36:45.018Z,511.88
2018-06-29T08:37:44.956Z,517.50
2018-06-29T08:38:45.234Z,523.13
2018-06-29T08:39:44.824Z,523.13
2018-06-29T08:40:44.761Z,534.38
2018-06-29T08:41:44.697Z,534.38
2018-06-29T08:42:44.632Z,545.63
2018-06-29T08:43:44.573Z,562.50
2018-06-29T08:44:44.509Z,573.75
2018-06-29T08:45:44.453Z,596.25
2018-06-29T08:46:44.439Z,596.25
2018-06-29T08:47:44.360Z,630.00
2018-06-29T08:48:44.245Z,658.13
2018-06-29T08:49:44.203Z,686.25
2018-06-29T08:50:44.121Z,720.00
2018-06-29T08:51:44.072Z,753.75
2018-06-29T08:52:44.000Z,781.88
2018-06-29T08:53:43.934Z,793.13
2018-06-29T08:54:43.873Z,826.88
2018-06-29T08:55:43.806Z,855.00
2018-06-29T08:56:43.744Z,866.25
2018-06-29T08:57:43.688Z,894.38
2018-06-29T08:58:43.917Z,939.38
2018-06-29T08:59:43.559Z,1006.88
2018-06-29T09:00:43.498Z,967.50
2018-06-29T09:01:43.432Z,950.63
2018-06-29T09:02:43.370Z,753.75
2018-06-29T09:03:43.311Z,613.13
2018-06-29T09:04:43.272Z,658.13
2018-06-29T09:05:43.182Z,646.88
2018-06-29T09:06:43.120Z,703.13
2018-06-29T09:07:43.080Z,793.13
2018-06-29T09:08:43.004Z,798.75
2018-06-29T09:09:42.939Z,871.88
2018-06-29T09:10:42.876Z,1063.13
2018-06-29T09:11:42.802Z,1181.25
2018-06-29T09:12:42.735Z,1192.50
2018-06-29T09:13:42.676Z,1276.88
2018-06-29T09:14:42.613Z,1141.88
2018-06-29T09:15:42.548Z,1445.63
2018-06-29T09:16:42.484Z,1648.13
2018-06-29T09:17:42.425Z,1721.25
2018-06-29T09:18:42.374Z,2036.25
2018-06-29T09:19:42.311Z,2199.38
2018-06-29T09:20:42.240Z,2311.88
2018-06-29T09:21:42.175Z,2188.13
2018-06-29T09:22:42.106Z,2137.50
2018-06-29T09:23:42.044Z,2193.75
2018-06-29T09:24:41.981Z,2216.25
2018-06-29T09:25:41.915Z,2266.88
2018-06-29T09:26:41.853Z,2289.38
2018-06-29T09:27:41.785Z,2323.13
2018-06-29T09:28:41.723Z,2323.13
2018-06-29T09:29:41.667Z,2379.38
2018-06-29T09:30:41.606Z,2396.25
2018-06-29T09:31:41.538Z,2300.63
2018-06-29T09:32:41.476Z,2103.75
2018-06-29T09:33:41.414Z,2311.88
2018-06-29T09:34:41.349Z,2643.75
2018-06-29T09:35:41.289Z,3166.88
2018-06-29T09:36:41.228Z,3369.38
2018-06-29T09:37:41.161Z,3105.00
2018-06-29T09:38:41.099Z,2750.63
2018-06-29T09:39:41.040Z,2250.00
2018-06-29T09:40:40.979Z,3166.88
2018-06-29T09:41:40.917Z,3718.13
2018-06-29T09:42:40.857Z,3746.25
2018-06-29T09:43:40.789Z,3515.63
2018-06-29T09:44:40.728Z,3290.63
2018-06-29T09:45:40.667Z,3155.63
2018-06-29T09:46:40.604Z,3121.88
2018-06-29T09:47:40.540Z,3065.63
2018-06-29T09:48:40.476Z,3015.00
2018-06-29T09:49:40.428Z,2835.00
2018-06-29T09:50:40.353Z,2548.13
2018-06-29T09:51:40.293Z,1940.63
2018-06-29T09:52:40.232Z,1479.38
2018-06-29T09:53:40.163Z,1091.25
2018-06-29T09:54:40.102Z,866.25
2018-06-29T09:55:40.044Z,1237.50
2018-06-29T09:56:39.992Z,1710.00
2018-06-29T09:57:39.933Z,1513.13
2018-06-29T09:58:39.870Z,1856.25
2018-06-29T09:59:39.804Z,1833.75
2018-06-29T10:00:39.753Z,2013.75
2018-06-29T10:01:39.685Z,2058.75
2018-06-29T10:02:39.618Z,1462.50
2018-06-29T10:03:39.546Z,2328.75
2018-06-29T10:04:39.489Z,2165.63
2018-06-29T10:05:39.420Z,1710.00
2018-06-29T10:06:39.355Z,2289.38
2018-06-29T10:07:39.296Z,2891.25
2018-06-29T10:08:39.234Z,3099.38
2018-06-29T10:09:39.167Z,2368.13
2018-06-29T10:10:39.113Z,1293.75
2018-06-29T10:11:39.046Z,793.13
2018-06-29T10:12:38.984Z,506.25
2018-06-29T10:13:38.919Z,427.50
2018-06-29T10:14:38.858Z,433.13
2018-06-29T10:15:38.791Z,455.63
2018-06-29T10:16:38.718Z,500.63
2018-06-29T10:17:38.662Z,540.00
2018-06-29T10:18:38.601Z,573.75
2018-06-29T10:19:38.630Z,618.75
2018-06-29T10:20:38.481Z,663.75
2018-06-29T10:21:38.418Z,697.50
2018-06-29T10:22:38.329Z,720.00
2018-06-29T10:23:38.274Z,748.13
2018-06-29T10:24:38.210Z,742.50
2018-06-29T10:25:38.142Z,781.88
2018-06-29T10:26:38.069Z,843.75
2018-06-29T10:27:38.012Z,860.63
2018-06-29T10:28:37.959Z,849.38
2018-06-29T10:29:37.886Z,894.38
2018-06-29T10:30:37.824Z,933.75
2018-06-29T10:31:37.744Z,956.25
2018-06-29T10:32:37.691Z,945.00
2018-06-29T10:33:37.621Z,956.25
2018-06-29T10:34:37.547Z,967.50
2018-06-29T10:35:37.482Z,973.13
2018-06-29T10:36:37.451Z,961.88
2018-06-29T10:37:37.358Z,922.50
2018-06-29T10:38:37.284Z,866.25
2018-06-29T10:39:37.224Z,826.88
2018-06-29T10:40:37.162Z,776.25
2018-06-29T10:41:37.084Z,720.00
2018-06-29T10:42:37.022Z,680.63
2018-06-29T10:43:36.963Z,641.25
2018-06-29T10:44:36.904Z,680.63
2018-06-29T10:45:36.823Z,866.25
2018-06-29T10:46:36.761Z,928.13
2018-06-29T10:47:36.688Z,1355.63
2018-06-29T10:48:36.619Z,1580.63
2018-06-29T10:49:36.563Z,1985.63
2018-06-29T10:50:36.491Z,1996.88
2018-06-29T10:51:36.421Z,2008.13
2018-06-29T10:52:36.360Z,2525.63
2018-06-29T10:53:36.283Z,5085.00
2018-06-29T10:54:36.223Z,6210.00
2018-06-29T10:55:36.164Z,5191.88
2018-06-29T10:56:36.089Z,3993.75
2018-06-29T10:57:36.024Z,4668.75
2018-06-29T10:58:35.966Z,4640.63
2018-06-29T10:59:35.896Z,4353.75
2018-06-29T11:00:35.834Z,4179.38
2018-06-29T11:01:35.772Z,3993.75
2018-06-29T11:02:35.712Z,3892.50
2018-06-29T11:03:35.641Z,3583.13
2018-06-29T11:04:35.577Z,4005.00
2018-06-29T11:05:35.555Z,4533.75
2018-06-29T11:06:35.446Z,4426.88
2018-06-29T11:07:35.389Z,4584.38
2018-06-29T11:08:35.325Z,4331.25
2018-06-29T11:09:35.266Z,4449.38
2018-06-29T11:10:35.203Z,3898.13
2018-06-29T11:11:35.137Z,3397.50
2018-06-29T11:12:35.074Z,3375.00
2018-06-29T11:13:35.025Z,4033.13
2018-06-29T11:14:34.967Z,4303.13
2018-06-29T11:15:34.893Z,3915.00
2018-06-29T11:16:34.825Z,3571.88
2018-06-29T11:17:34.763Z,3588.75
2018-06-29T11:18:34.698Z,4050.00
2018-06-29T11:19:34.640Z,3875.63
2018-06-29T11:20:34.580Z,4100.63
2018-06-29T11:21:34.512Z,3650.63
2018-06-29T11:22:34.477Z,3768.75
2018-06-29T11:23:34.395Z,3858.75
2018-06-29T11:24:34.330Z,2683.13
2018-06-29T11:25:34.265Z,1918.13
2018-06-29T11:26:34.203Z,1726.88
2018-06-29T11:27:34.137Z,1608.75
2018-06-29T11:28:34.073Z,1406.25
2018-06-29T11:29:34.016Z,1406.25
2018-06-29T11:30:33.967Z,1451.25
2018-06-29T11:31:33.893Z,1614.38
2018-06-29T11:32:33.824Z,1468.13
2018-06-29T11:33:33.765Z,1541.25
2018-06-29T11:34:33.704Z,1620.00
2018-06-29T11:35:33.643Z,1563.75
2018-06-29T11:36:33.580Z,1816.88
2018-06-29T11:37:33.513Z,1743.75
2018-06-29T11:38:33.451Z,1524.38
2018-06-29T11:39:33.393Z,1411.88
2018-06-29T11:40:33.329Z,1451.25
2018-06-29T11:41:33.270Z,1535.63
2018-06-29T11:42:33.211Z,1766.25
2018-06-29T11:43:33.134Z,1715.63
2018-06-29T11:44:33.066Z,1648.13
2018-06-29T11:45:33.007Z,1608.75
2018-06-29T11:46:32.947Z,1361.25
2018-06-29T11:47:32.891Z,1586.25
2018-06-29T11:48:32.858Z,1451.25
2018-06-29T11:49:32.750Z,1231.88
2018-06-29T11:50:32.689Z,1524.38
2018-06-29T11:51:32.660Z,1963.13
2018-06-29T11:52:32.556Z,1856.25
2018-06-29T11:53:32.492Z,1625.63
2018-06-29T11:54:32.420Z,3251.25
2018-06-29T11:55:32.360Z,3819.38
2018-06-29T11:56:32.296Z,4578.75
2018-06-29T11:57:32.231Z,5062.50
2018-06-29T11:58:32.169Z,4455.00
2018-06-29T11:59:32.092Z,5006.25
2018-06-29T12:00:32.072Z,4668.75
2018-06-29T12:01:31.974Z,3751.88
2018-06-29T12:02:31.909Z,3954.38
2018-06-29T12:03:31.843Z,3706.88
2018-06-29T12:04:31.768Z,4511.25
2018-06-29T12:05:31.702Z,4567.50
2018-06-29T12:06:31.654Z,4477.50
2018-06-29T12:07:31.595Z,4005.00
2018-06-29T12:08:31.520Z,3549.38
2018-06-29T12:09:31.457Z,3993.75
2018-06-29T12:10:31.393Z,3808.13
2018-06-29T12:11:31.335Z,4410.00
2018-06-29T12:12:31.274Z,4449.38
2018-06-29T12:13:31.207Z,3864.38
2018-06-29T12:14:31.147Z,4331.25
2018-06-29T12:15:31.079Z,4516.88
2018-06-29T12:16:31.005Z,4696.88
2018-06-29T12:17:30.958Z,4691.25
2018-06-29T12:18:30.885Z,4685.63
2018-06-29T12:19:30.818Z,4550.63
2018-06-29T12:20:30.755Z,3605.63
2018-06-29T12:21:30.695Z,4111.88
2018-06-29T12:22:30.644Z,3195.00
2018-06-29T12:23:30.577Z,3127.50
2018-06-29T12:24:30.511Z,2925.00
2018-06-29T12:25:30.478Z,3352.50
2018-06-29T12:26:30.380Z,3375.00
2018-06-29T12:27:30.322Z,3391.88
2018-06-29T12:28:30.260Z,3431.25
2018-06-29T12:29:30.200Z,3324.38
2018-06-29T12:30:30.137Z,4072.50
2018-06-29T12:31:30.071Z,4331.25
2018-06-29T12:32:30.008Z,4618.13
2018-06-29T12:33:29.950Z,4511.25
2018-06-29T12:34:29.887Z,4674.38
2018-06-29T12:35:29.823Z,4758.75